Time;durP1;ratioP1;P1;durP2;ratioP2;P2;SDS_P1;SDS_P2;PMS_P1;PMS_P2;Temp;Humidity;BMP_temperature;BMP_pressure;BME280_temperature;BME280_humidity;BME280_pressure;Samples;Min_cycle;Max_cycle;Signal;HPM_P1;HPM_P2
2022/01/29 00:00:31;;;;;;;9.90;4.40;;;;;;;;;;5037898;28;20473;-74
2022/01/29 00:02:59;;;;;;;17.60;7.60;;;;;;;;;;5054492;28;20454;-74
2022/01/29 00:05:27;;;;;;;15.93;7.17;;;;;;;;;;5056744;28;20481;-74
2022/01/29 00:08:00;;;;;;;15.07;7.03;;;;;;;;;;5050882;28;20462;-74
2022/01/29 00:10:32;;;;;;;19.27;4.50;;;;;;;;;;5049400;28;20472;-74
2022/01/29 00:13:00;;;;;;;6.70;3.60;;;;;;;;;;5054534;28;20500;-75
2022/01/29 00:15:31;;;;;;;12.17;7.30;;;;;;;;;;5041325;28;20450;-74
2022/01/29 00:17:59;;;;;;;16.73;8.47;;;;;;;;;;5056257;28;20816;-74
2022/01/29 00:20:33;;;;;;;21.70;8.17;;;;;;;;;;5055985;28;20920;-73
2022/01/29 00:23:14;;;;;;;14.70;8.03;;;;;;;;;;5056144;28;20464;-74
2022/01/29 00:25:41;;;;;;;14.60;7.53;;;;;;;;;;5042663;28;20488;-74
2022/01/29 00:28:09;;;;;;;15.97;8.70;;;;;;;;;;5055598;28;21012;-74
2022/01/29 00:30:41;;;;;;;17.13;8.60;;;;;;;;;;5056434;28;20472;-73
2022/01/29 00:33:12;;;;;;;17.90;8.00;;;;;;;;;;5049774;28;20462;-73
2022/01/29 00:35:40;;;;;;;15.57;8.53;;;;;;;;;;5036258;28;20495;-74
2022/01/29 00:38:12;;;;;;;17.53;8.90;;;;;;;;;;5047148;28;20476;-74
2022/01/29 00:40:41;;;;;;;20.30;8.80;;;;;;;;;;5035840;28;20495;-74
2022/01/29 00:45:56;;;;;;;21.00;9.93;;;;;;;;;;5033006;28;20948;-72
2022/01/29 00:48:27;;;;;;;22.40;9.50;;;;;;;;;;5036089;28;20847;-74
2022/01/29 00:51:00;;;;;;;28.10;12.63;;;;;;;;;;5036378;28;20466;-74
2022/01/29 00:53:30;;;;;;;14.23;8.50;;;;;;;;;;5036399;28;20536;-74
2022/01/29 00:56:06;;;;;;;27.07;13.63;;;;;;;;;;5039603;28;20498;-73
2022/01/29 00:58:38;;;;;;;19.00;10.43;;;;;;;;;;5051477;28;20453;-72
2022/01/29 01:01:11;;;;;;;14.10;7.70;;;;;;;;;;5056404;28;20465;-73
2022/01/29 01:03:41;;;;;;;27.00;11.37;;;;;;;;;;5039199;28;20465;-73
2022/01/29 01:06:24;;;;;;;;;;;;;;;;;;;;;
2022/01/29 01:09:00;;;;;;;22.50;10.70;;;;;;;;;;5045063;28;20859;-72
2022/01/29 01:11:34;;;;;;;28.47;14.07;;;;;;;;;;5036019;28;20450;-73
2022/01/29 01:14:10;;;;;;;26.53;12.40;;;;;;;;;;5035465;28;20941;-74
2022/01/29 01:16:47;;;;;;;26.67;12.00;;;;;;;;;;5035275;28;20561;-72
2022/01/29 01:19:16;;;;;;;30.07;14.87;;;;;;;;;;5036231;28;20519;-73
2022/01/29 01:21:51;;;;;;;32.03;16.80;;;;;;;;;;5036777;28;20451;-73
2022/01/29 01:24:23;;;;;;;30.03;15.13;;;;;;;;;;5055399;28;20445;-73
2022/01/29 01:26:55;;;;;;;28.60;15.13;;;;;;;;;;5054945;28;20485;-72
2022/01/29 01:29:30;;;;;;;30.60;15.20;;;;;;;;;;5058020;28;20850;-72
2022/01/29 01:32:04;;;;;;;37.87;19.67;;;;;;;;;;5059931;28;20518;-72
2022/01/29 01:34:42;;;;;;;31.37;16.47;;;;;;;;;;5059580;28;20751;-73
2022/01/29 01:37:18;;;;;;;31.83;17.00;;;;;;;;;;5050561;28;20967;-73
2022/01/29 01:43:03;;;;;;;41.10;22.70;;;;;;;;;;5070774;28;20746;-73
2022/01/29 01:45:31;;;;;;;36.10;17.97;;;;;;;;;;5077933;28;20782;-74
2022/01/29 01:48:03;;;;;;;28.67;13.77;;;;;;;;;;5069956;28;20453;-74
2022/01/29 01:50:31;;;;;;;48.10;20.70;;;;;;;;;;5061281;28;20449;-73
2022/01/29 01:52:59;;;;;;;27.27;14.20;;;;;;;;;;5066547;28;20487;-73
2022/01/29 01:55:27;;;;;;;48.80;21.50;;;;;;;;;;5066680;28;20456;-73
2022/01/29 01:57:57;;;;;;;33.33;17.00;;;;;;;;;;5062613;28;20469;-73
2022/01/29 02:00:25;;;;;;;29.80;16.13;;;;;;;;;;5049758;28;20894;-73
2022/01/29 02:02:53;;;;;;;28.63;13.73;;;;;;;;;;5063393;28;20499;-73
2022/01/29 02:05:20;;;;;;;53.37;20.40;;;;;;;;;;5049363;28;21061;-73
2022/01/29 02:07:48;;;;;;;23.70;11.80;;;;;;;;;;5039960;28;20454;-73
2022/01/29 02:10:17;;;;;;;41.93;19.80;;;;;;;;;;5040326;28;20522;-73
2022/01/29 02:12:46;;;;;;;41.47;22.00;;;;;;;;;;5075917;28;20518;-73
2022/01/29 02:15:16;;;;;;;42.73;20.73;;;;;;;;;;5066567;28;20453;-73
2022/01/29 02:17:45;;;;;;;41.47;21.77;;;;;;;;;;5077630;28;20754;-73
2022/01/29 02:20:14;;;;;;;39.90;19.70;;;;;;;;;;5069714;28;20461;-73
2022/01/29 02:22:43;;;;;;;46.37;18.50;;;;;;;;;;5058544;28;20731;-73
2022/01/29 02:25:26;;;;;;;38.00;18.90;;;;;;;;;;5065407;28;20495;-73
2022/01/29 02:27:54;;;;;;;30.23;14.57;;;;;;;;;;5075409;28;20452;-73
2022/01/29 02:30:22;;;;;;;35.47;17.70;;;;;;;;;;5072939;28;20457;-73
2022/01/29 02:32:50;;;;;;;41.00;22.50;;;;;;;;;;5060522;28;20870;-73
2022/01/29 02:35:19;;;;;;;42.13;20.10;;;;;;;;;;5046874;28;20455;-73
2022/01/29 02:37:51;;;;;;;52.17;23.17;;;;;;;;;;5072510;28;20533;-73
2022/01/29 02:40:19;;;;;;;49.57;20.97;;;;;;;;;;5078152;28;20554;-73
2022/01/29 02:42:46;;;;;;;39.57;20.33;;;;;;;;;;5077939;28;20549;-73
2022/01/29 02:45:14;;;;;;;49.67;24.13;;;;;;;;;;5077993;28;20480;-73
2022/01/29 02:47:41;;;;;;;48.47;23.00;;;;;;;;;;5059803;28;20854;-73
2022/01/29 02:50:15;;;;;;;46.70;22.00;;;;;;;;;;5058508;28;20452;-73
2022/01/29 02:52:46;;;;;;;42.40;20.30;;;;;;;;;;5060771;28;20468;-73
2022/01/29 02:55:15;;;;;;;45.07;23.97;;;;;;;;;;5057531;28;20888;-73
2022/01/29 02:57:45;;;;;;;41.63;19.47;;;;;;;;;;5060906;28;20904;-73
2022/01/29 03:00:14;;;;;;;34.70;18.30;;;;;;;;;;5057801;28;20449;-73
2022/01/29 03:02:42;;;;;;;39.23;18.03;;;;;;;;;;5052051;28;20512;-73
2022/01/29 03:05:10;;;;;;;38.77;15.30;;;;;;;;;;5057462;28;20939;-73
2022/01/29 03:07:38;;;;;;;27.50;14.80;;;;;;;;;;5057637;28;20489;-73
2022/01/29 03:10:06;;;;;;;37.10;19.37;;;;;;;;;;5050778;28;20453;-73
2022/01/29 03:12:44;;;;;;;42.60;18.80;;;;;;;;;;5057787;28;20469;-73
2022/01/29 03:15:13;;;;;;;44.47;18.43;;;;;;;;;;5057323;28;20449;-73
2022/01/29 03:17:41;;;;;;;32.07;14.73;;;;;;;;;;5057635;28;20477;-73
2022/01/29 03:20:10;;;;;;;31.07;14.57;;;;;;;;;;5057135;28;20530;-74
2022/01/29 03:22:38;;;;;;;27.60;14.30;;;;;;;;;;5056831;28;20933;-73
2022/01/29 03:25:06;;;;;;;37.10;16.80;;;;;;;;;;5056974;28;20542;-72
2022/01/29 03:27:34;;;;;;;35.53;15.00;;;;;;;;;;5056817;28;20506;-73
2022/01/29 03:30:03;;;;;;;33.50;19.17;;;;;;;;;;5057297;28;20454;-73
2022/01/29 03:32:31;;;;;;;34.47;16.00;;;;;;;;;;5057072;28;20449;-71
2022/01/29 03:34:58;;;;;;;31.47;16.30;;;;;;;;;;5057313;28;20519;-72
2022/01/29 03:37:27;;;;;;;32.33;17.03;;;;;;;;;;5056883;28;20441;-73
2022/01/29 03:39:59;;;;;;;28.37;14.63;;;;;;;;;;5056816;28;20456;-72
2022/01/29 03:42:29;;;;;;;36.47;16.77;;;;;;;;;;5056759;28;20453;-72
2022/01/29 03:44:57;;;;;;;27.90;13.27;;;;;;;;;;5056467;28;20756;-73
2022/01/29 03:47:26;;;;;;;19.90;9.43;;;;;;;;;;5056940;28;20516;-72
2022/01/29 03:49:54;;;;;;;29.53;15.40;;;;;;;;;;5043767;28;20469;-73
2022/01/29 03:52:22;;;;;;;21.47;10.67;;;;;;;;;;5036484;28;20544;-72
2022/01/29 03:54:50;;;;;;;26.27;14.93;;;;;;;;;;5037026;28;20846;-73
2022/01/29 03:57:17;;;;;;;15.07;9.80;;;;;;;;;;5036439;28;20450;-74
2022/01/29 03:59:45;;;;;;;40.07;13.07;;;;;;;;;;5038183;28;20843;-73
2022/01/29 04:02:15;;;;;;;23.00;12.47;;;;;;;;;;5037632;28;20446;-73
2022/01/29 04:04:44;;;;;;;34.33;16.33;;;;;;;;;;5036706;28;20465;-73
2022/01/29 04:07:14;;;;;;;23.03;10.03;;;;;;;;;;5036677;28;20486;-73
2022/01/29 04:09:48;;;;;;;19.50;10.93;;;;;;;;;;5036718;28;20882;-73
2022/01/29 04:12:16;;;;;;;20.17;11.33;;;;;;;;;;5036443;28;20939;-72
2022/01/29 04:14:44;;;;;;;21.10;10.93;;;;;;;;;;5037111;28;20544;-73
2022/01/29 04:17:12;;;;;;;17.70;9.50;;;;;;;;;;5036880;28;20512;-73
2022/01/29 04:19:40;;;;;;;12.63;8.93;;;;;;;;;;5036801;28;20461;-72
2022/01/29 04:22:09;;;;;;;20.97;10.97;;;;;;;;;;5037174;28;20845;-72
2022/01/29 04:24:40;;;;;;;33.03;13.47;;;;;;;;;;5036683;28;20454;-73
2022/01/29 04:27:17;;;;;;;26.97;12.80;;;;;;;;;;5036620;28;20579;-73
2022/01/29 04:29:56;;;;;;;24.00;12.20;;;;;;;;;;5036705;28;20482;-73
2022/01/29 04:32:32;;;;;;;13.63;7.53;;;;;;;;;;5036663;28;20458;-72
2022/01/29 04:35:01;;;;;;;19.37;10.40;;;;;;;;;;5037001;28;20464;-72
2022/01/29 04:37:30;;;;;;;15.43;9.50;;;;;;;;;;5037737;28;20878;-71
2022/01/29 04:39:57;;;;;;;25.30;12.33;;;;;;;;;;5036871;28;20490;-73
2022/01/29 04:42:26;;;;;;;16.13;9.90;;;;;;;;;;5037874;28;20480;-73
2022/01/29 04:44:54;;;;;;;17.30;10.03;;;;;;;;;;5038049;28;20543;-71
2022/01/29 04:47:21;;;;;;;21.93;9.23;;;;;;;;;;5037544;28;20490;-73
2022/01/29 04:49:49;;;;;;;24.37;13.43;;;;;;;;;;5037907;28;20457;-73
2022/01/29 04:52:17;;;;;;;16.03;8.40;;;;;;;;;;5038016;28;20466;-73
2022/01/29 04:54:46;;;;;;;19.73;12.10;;;;;;;;;;5038076;28;20489;-72
2022/01/29 04:57:14;;;;;;;28.90;13.13;;;;;;;;;;5055087;28;20910;-73
2022/01/29 04:59:41;;;;;;;19.43;9.60;;;;;;;;;;5057690;28;20453;-73
2022/01/29 05:02:11;;;;;;;20.77;10.10;;;;;;;;;;5058088;28;20461;-72
2022/01/29 05:04:38;;;;;;;15.93;9.37;;;;;;;;;;5059793;28;20545;-73
2022/01/29 05:07:06;;;;;;;19.63;10.80;;;;;;;;;;5062168;28;20504;-73
2022/01/29 05:09:34;;;;;;;19.93;11.20;;;;;;;;;;5061785;28;20511;-73
2022/01/29 05:12:03;;;;;;;19.90;11.70;;;;;;;;;;5061923;28;20461;-73
2022/01/29 05:14:39;;;;;;;19.33;9.77;;;;;;;;;;5060715;28;20911;-72
2022/01/29 05:28:19;;;;;;;26.27;13.77;;;;;;;;;;5061398;28;20471;-72
2022/01/29 05:30:46;;;;;;;22.90;14.20;;;;;;;;;;5061448;28;20441;-73
2022/01/29 05:33:14;;;;;;;17.90;9.67;;;;;;;;;;5061289;28;20445;-73
2022/01/29 05:35:43;;;;;;;17.87;8.07;;;;;;;;;;5053218;28;20472;-73
2022/01/29 05:38:10;;;;;;;27.00;11.07;;;;;;;;;;5040815;28;20545;-73
2022/01/29 05:40:38;;;;;;;15.17;8.80;;;;;;;;;;5039159;28;20528;-72
2022/01/29 05:43:05;;;;;;;19.77;9.90;;;;;;;;;;5040337;28;20450;-72
2022/01/29 05:45:35;;;;;;;22.30;11.83;;;;;;;;;;5039986;28;20453;-72
2022/01/29 05:48:02;;;;;;;26.23;15.20;;;;;;;;;;5040473;28;20768;-73
2022/01/29 05:50:34;;;;;;;24.80;13.20;;;;;;;;;;5040680;28;20461;-73
2022/01/29 05:53:03;;;;;;;23.37;11.83;;;;;;;;;;5039826;28;20865;-73
2022/01/29 05:55:37;;;;;;;15.77;7.60;;;;;;;;;;5039649;28;20549;-74
2022/01/29 05:58:09;;;;;;;29.17;12.63;;;;;;;;;;5050960;28;20971;-74
2022/01/29 06:00:39;;;;;;;21.77;12.60;;;;;;;;;;5057735;28;20485;-72
2022/01/29 06:03:07;;;;;;;31.93;16.17;;;;;;;;;;5038708;28;20925;-72
2022/01/29 06:05:35;;;;;;;26.80;13.00;;;;;;;;;;5038979;28;20465;-73
2022/01/29 06:08:04;;;;;;;24.83;11.97;;;;;;;;;;5038858;28;20497;-73
2022/01/29 06:10:32;;;;;;;24.37;11.73;;;;;;;;;;5038493;28;20454;-72
2022/01/29 06:13:00;;;;;;;23.27;13.77;;;;;;;;;;5038104;28;20458;-72
2022/01/29 06:15:27;;;;;;;24.10;13.03;;;;;;;;;;5037920;28;20730;-73
2022/01/29 06:17:58;;;;;;;22.30;10.87;;;;;;;;;;5037927;28;20466;-74
2022/01/29 06:20:27;;;;;;;29.47;13.20;;;;;;;;;;5038305;28;21067;-72
2022/01/29 06:22:55;;;;;;;19.03;10.57;;;;;;;;;;5037733;28;20547;-73
2022/01/29 06:25:23;;;;;;;23.10;10.43;;;;;;;;;;5037971;28;21180;-73
2022/01/29 06:27:51;;;;;;;18.40;11.07;;;;;;;;;;5037348;28;20487;-73
2022/01/29 06:30:18;;;;;;;26.27;14.27;;;;;;;;;;5037625;28;20871;-73
2022/01/29 06:32:52;;;;;;;26.83;15.80;;;;;;;;;;5037611;28;20557;-72
2022/01/29 06:35:22;;;;;;;26.00;14.10;;;;;;;;;;5037657;28;20450;-72
2022/01/29 06:37:50;;;;;;;31.77;15.37;;;;;;;;;;5044692;28;20528;-73
2022/01/29 06:40:18;;;;;;;21.60;12.40;;;;;;;;;;5044302;28;20530;-72
2022/01/29 06:43:28;;;;;;;33.63;16.40;;;;;;;;;;5042598;28;20485;-73
2022/01/29 06:46:01;;;;;;;19.87;12.00;;;;;;;;;;5042277;28;20851;-72
2022/01/29 06:48:35;;;;;;;17.83;11.37;;;;;;;;;;5066884;28;20631;-73
2022/01/29 06:51:11;;;;;;;20.47;12.73;;;;;;;;;;5066616;28;20509;-72
2022/01/29 06:53:41;;;;;;;31.47;14.07;;;;;;;;;;5066439;28;20540;-71
2022/01/29 06:56:09;;;;;;;29.80;15.50;;;;;;;;;;5054737;28;20485;-72
2022/01/29 06:58:38;;;;;;;33.97;19.27;;;;;;;;;;5048856;28;20902;-72
2022/01/29 07:01:06;;;;;;;24.90;11.63;;;;;;;;;;5066045;28;20453;-71
2022/01/29 07:03:39;;;;;;;28.80;15.07;;;;;;;;;;5058275;28;20453;-72
2022/01/29 07:06:08;;;;;;;21.87;14.27;;;;;;;;;;5055304;28;20842;-73
2022/01/29 07:08:38;;;;;;;26.97;14.67;;;;;;;;;;5075253;28;20488;-73
2022/01/29 07:11:14;;;;;;;25.93;12.93;;;;;;;;;;5049707;28;20463;-72
2022/01/29 07:13:45;;;;;;;21.40;10.70;;;;;;;;;;5047271;28;20449;-71
2022/01/29 07:16:22;;;;;;;24.10;13.40;;;;;;;;;;5054354;28;20484;-73
2022/01/29 07:18:49;;;;;;;20.57;12.80;;;;;;;;;;5057381;28;20821;-72
2022/01/29 07:21:18;;;;;;;28.03;13.27;;;;;;;;;;5056780;28;20473;-73
2022/01/29 07:23:47;;;;;;;30.03;17.23;;;;;;;;;;5053161;28;20447;-72
2022/01/29 07:26:15;;;;;;;27.30;15.20;;;;;;;;;;5051276;28;20469;-73
2022/01/29 07:28:42;;;;;;;31.47;14.53;;;;;;;;;;5055029;28;20564;-72
2022/01/29 07:31:10;;;;;;;23.73;12.50;;;;;;;;;;5058614;28;20793;-72
2022/01/29 07:33:49;;;;;;;34.73;16.57;;;;;;;;;;5074456;28;20537;-72
2022/01/29 07:36:17;;;;;;;26.03;12.63;;;;;;;;;;5036263;28;20469;-72
2022/01/29 07:38:46;;;;;;;24.73;14.00;;;;;;;;;;5052241;28;20441;-72
2022/01/29 07:41:14;;;;;;;22.87;13.43;;;;;;;;;;5036655;28;20839;-73
2022/01/29 07:43:42;;;;;;;22.37;11.20;;;;;;;;;;5036656;28;20447;-72
2022/01/29 07:46:09;;;;;;;19.47;11.10;;;;;;;;;;5049850;28;20734;-72
2022/01/29 07:51:42;;;;;;;29.10;15.07;;;;;;;;;;5063832;28;20469;-71
2022/01/29 07:54:14;;;;;;;24.20;12.13;;;;;;;;;;5047214;28;20480;-70
2022/01/29 07:56:43;;;;;;;18.40;11.07;;;;;;;;;;5049354;28;20887;-72
2022/01/29 07:59:11;;;;;;;16.87;10.10;;;;;;;;;;5035954;28;20445;-72
2022/01/29 08:01:39;;;;;;;23.67;13.50;;;;;;;;;;5043987;28;20445;-71
2022/01/29 08:04:06;;;;;;;26.47;14.77;;;;;;;;;;5055496;28;20718;-72
2022/01/29 08:06:34;;;;;;;21.20;13.07;;;;;;;;;;5058064;28;20457;-72
2022/01/29 08:09:02;;;;;;;21.47;13.27;;;;;;;;;;5043067;28;20826;-72
2022/01/29 08:11:32;;;;;;;24.57;12.47;;;;;;;;;;5049134;28;20900;-72
2022/01/29 08:13:59;;;;;;;20.70;12.53;;;;;;;;;;5052856;28;20921;-72
2022/01/29 08:16:29;;;;;;;20.40;11.63;;;;;;;;;;5055583;28;20465;-73
2022/01/29 08:18:57;;;;;;;15.00;9.43;;;;;;;;;;5049913;28;20454;-72
2022/01/29 08:21:25;;;;;;;15.47;10.50;;;;;;;;;;5045853;28;20445;-73
2022/01/29 08:24:02;;;;;;;18.50;8.43;;;;;;;;;;5041303;28;20857;-72
2022/01/29 08:26:32;;;;;;;20.60;9.33;;;;;;;;;;5043377;28;20512;-73
2022/01/29 08:29:04;;;;;;;14.83;8.30;;;;;;;;;;5037047;28;20684;-72
2022/01/29 08:31:34;;;;;;;8.93;6.20;;;;;;;;;;5049711;28;20478;-72
2022/01/29 08:34:03;;;;;;;10.50;6.77;;;;;;;;;;5040557;28;20469;-72
2022/01/29 08:36:30;;;;;;;15.47;10.00;;;;;;;;;;5055694;28;20457;-72
2022/01/29 08:38:58;;;;;;;21.90;8.97;;;;;;;;;;5058615;28;20452;-73
2022/01/29 08:41:26;;;;;;;11.00;7.40;;;;;;;;;;5067223;28;20919;-73
2022/01/29 08:43:59;;;;;;;13.83;8.23;;;;;;;;;;5079887;28;20547;-72
2022/01/29 08:46:29;;;;;;;16.87;10.73;;;;;;;;;;5043386;28;20438;-71
2022/01/29 08:49:06;;;;;;;21.17;10.77;;;;;;;;;;5047409;28;20499;-71
2022/01/29 08:51:40;;;;;;;15.10;9.30;;;;;;;;;;5041773;28;20470;-72
2022/01/29 08:54:08;;;;;;;13.13;8.40;;;;;;;;;;5038950;28;20462;-73
2022/01/29 08:56:39;;;;;;;19.93;10.10;;;;;;;;;;5039630;28;20458;-73
2022/01/29 08:59:09;;;;;;;14.73;8.93;;;;;;;;;;5039438;28;20466;-72
2022/01/29 09:01:37;;;;;;;10.13;6.13;;;;;;;;;;5039230;28;20508;-72
2022/01/29 09:04:20;;;;;;;17.97;7.60;;;;;;;;;;5037636;28;20523;-72
2022/01/29 09:07:09;;;;;;;11.80;7.80;;;;;;;;;;5040913;28;21016;-71
2022/01/29 09:09:43;;;;;;;15.53;9.07;;;;;;;;;;5057906;28;20457;-72
2022/01/29 09:12:11;;;;;;;17.97;10.60;;;;;;;;;;5052295;28;20544;-71
2022/01/29 09:14:57;;;;;;;9.03;5.53;;;;;;;;;;5039099;28;20460;-71
2022/01/29 09:17:39;;;;;;;9.30;4.60;;;;;;;;;;5055951;28;20894;-72
2022/01/29 09:20:17;;;;;;;11.03;7.77;;;;;;;;;;5038029;28;20446;-72
2022/01/29 09:22:59;;;;;;;16.27;8.93;;;;;;;;;;5038399;28;20457;-70
2022/01/29 09:25:46;;;;;;;13.03;8.23;;;;;;;;;;5037904;28;20462;-71
2022/01/29 09:28:16;;;;;;;10.40;6.77;;;;;;;;;;5037871;28;20482;-73
2022/01/29 09:30:49;;;;;;;5.63;3.57;;;;;;;;;;5038487;28;20504;-71
2022/01/29 09:33:23;;;;;;;6.20;3.70;;;;;;;;;;5048605;28;20547;-73
2022/01/29 09:35:51;;;;;;;6.83;5.83;;;;;;;;;;5051535;28;20520;-71
2022/01/29 09:38:26;;;;;;;7.10;4.10;;;;;;;;;;5054678;28;20488;-71
2022/01/29 09:41:00;;;;;;;10.40;6.30;;;;;;;;;;5044699;28;20468;-71
2022/01/29 09:43:32;;;;;;;12.20;6.03;;;;;;;;;;5050921;28;20705;-70
2022/01/29 09:46:02;;;;;;;8.87;6.10;;;;;;;;;;5038432;28;20458;-71
2022/01/29 09:48:38;;;;;;;8.03;4.47;;;;;;;;;;5037276;28;20486;-73
2022/01/29 09:51:08;;;;;;;10.73;6.87;;;;;;;;;;5037944;28;20466;-72
2022/01/29 09:53:36;;;;;;;7.83;5.70;;;;;;;;;;5048892;28;20918;-72
2022/01/29 09:56:04;;;;;;;11.93;8.37;;;;;;;;;;5058156;28;20449;-72
2022/01/29 09:58:31;;;;;;;9.70;6.93;;;;;;;;;;5057003;28;20607;-71
2022/01/29 10:00:59;;;;;;;8.47;6.03;;;;;;;;;;5049057;28;20519;-71
2022/01/29 10:03:29;;;;;;;6.87;4.83;;;;;;;;;;5037600;28;20454;-71
2022/01/29 10:06:00;;;;;;;7.10;5.23;;;;;;;;;;5042292;28;20454;-72
2022/01/29 10:08:28;;;;;;;8.10;4.90;;;;;;;;;;5037621;28;20478;-71
2022/01/29 10:10:56;;;;;;;6.90;5.27;;;;;;;;;;5039001;28;20584;-71
2022/01/29 10:13:29;;;;;;;9.23;5.90;;;;;;;;;;5051312;28;20449;-73
2022/01/29 10:16:13;;;;;;;9.17;6.17;;;;;;;;;;5056987;28;20745;-72
2022/01/29 10:18:48;;;;;;;6.50;3.70;;;;;;;;;;5053112;28;20903;-71
2022/01/29 10:21:17;;;;;;;9.10;6.10;;;;;;;;;;5056907;28;20445;-71
2022/01/29 10:23:47;;;;;;;7.57;5.00;;;;;;;;;;5056718;28;20457;-71
2022/01/29 10:26:43;;;;;;;8.10;5.27;;;;;;;;;;5055854;28;20461;-71
2022/01/29 10:29:35;;;;;;;7.90;5.53;;;;;;;;;;5057501;28;20593;-72
2022/01/29 10:32:03;;;;;;;5.87;3.53;;;;;;;;;;5057085;28;20446;-71
2022/01/29 10:34:33;;;;;;;6.73;5.07;;;;;;;;;;5049086;28;20542;-71
2022/01/29 10:37:27;;;;;;;4.83;3.83;;;;;;;;;;5044924;28;20462;-72
2022/01/29 10:39:59;;;;;;;8.80;5.60;;;;;;;;;;5043425;28;20769;-71
2022/01/29 10:42:32;;;;;;;8.53;5.30;;;;;;;;;;5047197;28;20549;-71
2022/01/29 10:45:03;;;;;;;8.03;4.37;;;;;;;;;;5061147;28;20870;-72
2022/01/29 10:50:23;;;;;;;8.40;5.47;;;;;;;;;;5041370;28;20556;-72
2022/01/29 10:52:56;;;;;;;4.63;2.43;;;;;;;;;;5038296;28;20442;-70
2022/01/29 10:55:26;;;;;;;7.77;5.40;;;;;;;;;;5036702;28;20446;-72
2022/01/29 10:57:58;;;;;;;8.73;5.37;;;;;;;;;;5039632;28;20458;-71
2022/01/29 11:00:31;;;;;;;6.40;4.17;;;;;;;;;;5047152;28;20453;-72
2022/01/29 11:03:06;;;;;;;7.83;5.00;;;;;;;;;;5053422;28;20515;-73
2022/01/29 11:05:36;;;;;;;9.60;7.20;;;;;;;;;;5053976;28;20492;-72
2022/01/29 11:08:23;;;;;;;9.23;4.60;;;;;;;;;;5040322;28;21012;-72
2022/01/29 11:10:51;;;;;;;5.10;3.50;;;;;;;;;;5056787;28;20461;-71
2022/01/29 11:13:23;;;;;;;8.33;5.30;;;;;;;;;;5036383;28;20704;-71
2022/01/29 11:15:52;;;;;;;7.63;3.60;;;;;;;;;;5038989;28;20454;-71
2022/01/29 11:18:21;;;;;;;15.73;7.77;;;;;;;;;;5048967;28;20448;-71
2022/01/29 11:20:58;;;;;;;10.17;5.80;;;;;;;;;;5057200;28;20521;-71
2022/01/29 11:23:34;;;;;;;5.43;3.80;;;;;;;;;;5056970;28;20869;-71
2022/01/29 11:26:03;;;;;;;8.33;5.37;;;;;;;;;;5056974;28;20492;-71
2022/01/29 11:28:37;;;;;;;8.30;6.37;;;;;;;;;;5056202;28;20810;-72
2022/01/29 11:31:28;;;;;;;9.70;6.13;;;;;;;;;;5040370;28;20528;-72
2022/01/29 11:34:17;;;;;;;8.00;6.10;;;;;;;;;;5044283;28;20461;-70
2022/01/29 11:37:10;;;;;;;10.43;7.60;;;;;;;;;;5059061;28;20512;-72
2022/01/29 11:39:43;;;;;;;8.67;5.90;;;;;;;;;;5037001;28;20875;-72
2022/01/29 11:42:29;;;;;;;7.60;5.13;;;;;;;;;;5058377;28;20449;-72
2022/01/29 11:44:58;;;;;;;11.03;6.57;;;;;;;;;;5068533;28;20452;-71
2022/01/29 11:47:44;;;;;;;6.40;4.53;;;;;;;;;;5058596;28;20461;-72
2022/01/29 11:50:33;;;;;;;7.20;5.17;;;;;;;;;;5058575;28;20445;-73
2022/01/29 11:53:06;;;;;;;9.37;5.43;;;;;;;;;;5048577;28;20443;-72
2022/01/29 11:55:36;;;;;;;8.53;4.80;;;;;;;;;;5051252;28;20461;-72
2022/01/29 11:58:26;;;;;;;8.47;3.77;;;;;;;;;;5036389;28;20524;-72
2022/01/29 12:01:21;;;;;;;8.70;5.33;;;;;;;;;;5036412;28;20458;-73
2022/01/29 12:03:53;;;;;;;7.60;5.70;;;;;;;;;;5039326;28;20455;-73
2022/01/29 12:06:27;;;;;;;7.60;5.23;;;;;;;;;;5046957;28;20454;-72
2022/01/29 12:09:07;;;;;;;7.33;4.67;;;;;;;;;;5050072;28;20765;-72
2022/01/29 12:11:39;;;;;;;6.00;3.97;;;;;;;;;;5065770;28;20539;-73
2022/01/29 12:14:25;;;;;;;5.23;3.77;;;;;;;;;;5037713;28;20450;-72
2022/01/29 12:16:57;;;;;;;5.23;4.30;;;;;;;;;;5043957;28;20464;-72
2022/01/29 12:19:42;;;;;;;8.63;5.83;;;;;;;;;;5054386;28;20510;-71
2022/01/29 12:22:15;;;;;;;7.93;5.70;;;;;;;;;;5055239;28;20732;-73
2022/01/29 12:24:55;;;;;;;7.20;5.00;;;;;;;;;;5066672;28;20542;-73
2022/01/29 12:27:26;;;;;;;5.73;3.73;;;;;;;;;;5076149;28;20494;-72
2022/01/29 12:30:02;;;;;;;5.33;3.60;;;;;;;;;;5075063;28;20502;-72
2022/01/29 12:32:32;;;;;;;7.47;5.77;;;;;;;;;;5074397;28;20807;-72
2022/01/29 12:35:06;;;;;;;9.00;6.40;;;;;;;;;;5054384;28;20476;-72
2022/01/29 12:37:53;;;;;;;7.80;5.43;;;;;;;;;;5051174;28;20565;-72
2022/01/29 12:40:22;;;;;;;7.73;5.53;;;;;;;;;;5048820;28;20862;-72
2022/01/29 12:42:59;;;;;;;7.17;5.80;;;;;;;;;;5047610;28;20451;-73
2022/01/29 12:45:32;;;;;;;9.50;6.33;;;;;;;;;;5048366;28;20456;-73
2022/01/29 12:48:10;;;;;;;5.40;4.70;;;;;;;;;;5035918;28;21134;-71
2022/01/29 12:50:44;;;;;;;8.67;6.00;;;;;;;;;;5035772;28;20450;-73
2022/01/29 12:53:31;;;;;;;5.00;4.20;;;;;;;;;;5035366;28;20465;-72
2022/01/29 12:58:53;;;;;;;8.70;5.93;;;;;;;;;;5038357;28;20466;-73
2022/01/29 13:01:27;;;;;;;4.47;3.33;;;;;;;;;;5036181;28;20542;-72
2022/01/29 13:04:03;;;;;;;4.93;3.20;;;;;;;;;;5048203;28;20449;-72
2022/01/29 13:06:46;;;;;;;8.30;5.20;;;;;;;;;;5043630;28;20452;-72
2022/01/29 13:09:29;;;;;;;9.07;6.93;;;;;;;;;;5036752;28;20496;-73
2022/01/29 13:12:02;;;;;;;8.20;5.40;;;;;;;;;;5035862;28;20518;-73
2022/01/29 13:14:38;;;;;;;4.57;2.77;;;;;;;;;;5048080;28;20832;-72
2022/01/29 13:20:08;;;;;;;7.63;5.97;;;;;;;;;;5037497;28;20433;-72
2022/01/29 13:22:49;;;;;;;8.30;4.17;;;;;;;;;;5036257;28;20462;-72
2022/01/29 13:25:23;;;;;;;8.27;5.63;;;;;;;;;;5050055;28;20449;-72
2022/01/29 13:28:04;;;;;;;6.60;4.23;;;;;;;;;;5048385;28;20467;-71
2022/01/29 13:30:39;;;;;;;9.60;5.00;;;;;;;;;;5047507;28;20560;-72
2022/01/29 13:33:17;;;;;;;3.60;3.07;;;;;;;;;;5051231;28;20453;-72
2022/01/29 13:38:39;;;;;;;9.90;5.30;;;;;;;;;;5065628;28;20438;-72
2022/01/29 13:41:23;;;;;;;5.07;3.90;;;;;;;;;;5059959;28;20461;-72
2022/01/29 13:43:56;;;;;;;5.47;2.90;;;;;;;;;;5055427;28;20949;-71
2022/01/29 13:49:44;;;;;;;5.77;4.00;;;;;;;;;;5036978;28;20482;-73
2022/01/29 13:52:18;;;;;;;8.73;5.37;;;;;;;;;;5047727;28;20453;-73
2022/01/29 13:54:49;;;;;;;5.47;3.90;;;;;;;;;;5058364;28;20449;-72
2022/01/29 13:57:20;;;;;;;7.30;4.80;;;;;;;;;;5056898;28;20484;-71
2022/01/29 14:00:04;;;;;;;8.43;5.00;;;;;;;;;;5039230;28;20490;-70
2022/01/29 14:02:52;;;;;;;4.80;3.60;;;;;;;;;;5042262;28;20494;-72
2022/01/29 14:05:26;;;;;;;6.90;4.97;;;;;;;;;;5038903;28;20548;-72
2022/01/29 14:07:55;;;;;;;4.70;4.17;;;;;;;;;;5053770;28;20540;-71
2022/01/29 14:10:23;;;;;;;9.13;4.03;;;;;;;;;;5051840;28;20480;-71
2022/01/29 14:12:53;;;;;;;5.87;5.27;;;;;;;;;;5043869;28;20454;-71
2022/01/29 14:15:29;;;;;;;5.40;4.00;;;;;;;;;;5037498;28;20573;-73
2022/01/29 14:18:04;;;;;;;7.50;3.00;;;;;;;;;;5054800;28;21110;-71
2022/01/29 14:20:33;;;;;;;6.50;4.63;;;;;;;;;;5055482;28;20450;-71
2022/01/29 14:23:02;;;;;;;4.50;3.63;;;;;;;;;;5036948;28;20450;-71
2022/01/29 14:25:30;;;;;;;7.27;4.17;;;;;;;;;;5048730;28;20457;-71
2022/01/29 14:27:58;;;;;;;6.00;3.60;;;;;;;;;;5057130;28;20560;-73
2022/01/29 14:30:27;;;;;;;4.13;3.10;;;;;;;;;;5060589;28;20564;-72
2022/01/29 14:32:57;;;;;;;7.10;4.73;;;;;;;;;;5054782;28;20468;-70
2022/01/29 14:35:29;;;;;;;6.33;3.47;;;;;;;;;;5036600;28;20446;-70
2022/01/29 14:37:58;;;;;;;4.70;3.80;;;;;;;;;;5063966;28;20457;-71
2022/01/29 14:40:26;;;;;;;4.70;3.50;;;;;;;;;;5054861;28;20468;-72
2022/01/29 14:42:56;;;;;;;9.30;3.97;;;;;;;;;;5047195;28;20489;-70
2022/01/29 14:45:27;;;;;;;11.60;5.40;;;;;;;;;;5048881;28;20449;-71
2022/01/29 14:47:58;;;;;;;5.83;5.03;;;;;;;;;;5039265;28;20458;-72
2022/01/29 14:50:29;;;;;;;3.80;3.10;;;;;;;;;;5048113;28;20534;-70
2022/01/29 14:53:10;;;;;;;3.40;2.90;;;;;;;;;;5042082;28;20988;-70
2022/01/29 14:55:44;;;;;;;4.97;2.20;;;;;;;;;;5070406;28;20448;-71
2022/01/29 14:58:13;;;;;;;9.43;4.27;;;;;;;;;;5045675;28;20518;-70
2022/01/29 15:00:47;;;;;;;8.37;3.73;;;;;;;;;;5042385;28;20439;-70
2022/01/29 15:03:16;;;;;;;5.50;3.50;;;;;;;;;;5037286;28;20469;-70
2022/01/29 15:05:45;;;;;;;4.70;3.20;;;;;;;;;;5050839;28;20496;-70
2022/01/29 15:08:16;;;;;;;4.83;3.40;;;;;;;;;;5038233;28;20492;-71
2022/01/29 15:10:44;;;;;;;6.47;4.10;;;;;;;;;;5044086;28;20481;-70
2022/01/29 15:13:12;;;;;;;6.27;4.97;;;;;;;;;;5056838;28;20485;-71
2022/01/29 15:15:44;;;;;;;7.20;4.27;;;;;;;;;;5058455;28;20556;-72
2022/01/29 15:21:00;;;;;;;3.30;2.73;;;;;;;;;;5043251;28;20794;-70
2022/01/29 15:23:35;;;;;;;8.70;4.20;;;;;;;;;;5056566;28;20932;-71
2022/01/29 15:26:12;;;;;;;6.90;3.67;;;;;;;;;;5042204;28;20747;-71
2022/01/29 15:28:40;;;;;;;16.13;5.17;;;;;;;;;;5038768;28;20464;-71
2022/01/29 15:31:09;;;;;;;4.03;2.67;;;;;;;;;;5038986;28;20488;-71
2022/01/29 15:33:38;;;;;;;5.23;3.03;;;;;;;;;;5049331;28;20562;-71
2022/01/29 15:36:10;;;;;;;8.13;2.27;;;;;;;;;;5053927;28;20469;-71